createdAt,value
2022-08-05T00:00:46.717Z,21.21
2022-08-05T00:03:42.798Z,20.31
2022-08-05T00:06:35.905Z,19.99
2022-08-05T00:09:28.405Z,20.84
2022-08-05T00:12:26.218Z,21.42
2022-08-05T00:15:56.348Z,21.69
2022-08-05T00:18:21.422Z,21.90
2022-08-05T00:20:57.186Z,21.83
2022-08-05T00:23:53.654Z,21.88
2022-08-05T00:27:04.828Z,21.88
2022-08-05T00:30:03.192Z,21.94
2022-08-05T00:32:55.975Z,22.00
2022-08-05T00:36:15.989Z,22.15
2022-08-05T00:38:56.729Z,21.91
2022-08-05T00:41:55.434Z,20.95
2022-08-05T00:44:50.745Z,20.09
2022-08-05T00:47:57.077Z,19.79
2022-08-05T00:50:56.210Z,20.48
2022-08-05T00:54:02.547Z,20.93
2022-08-05T00:56:55.410Z,21.17
2022-08-05T00:59:49.303Z,21.31
2022-08-05T01:02:41.593Z,21.39
2022-08-05T01:05:36.176Z,21.48
2022-08-05T01:08:40.968Z,21.55
2022-08-05T01:11:41.011Z,21.29
2022-08-05T01:14:34.911Z,20.23
2022-08-05T01:17:39.870Z,19.28
2022-08-05T01:20:41.912Z,19.06
2022-08-05T01:24:13.019Z,19.93
2022-08-05T01:27:23.015Z,20.61
2022-08-05T01:30:18.867Z,20.84
2022-08-05T01:33:14.834Z,21.08
2022-08-05T01:36:16.959Z,21.22
2022-08-05T01:39:45.840Z,21.34
2022-08-05T01:42:30.712Z,21.42
2022-08-05T01:45:25.518Z,21.46
2022-08-05T01:48:20.325Z,21.51
2022-08-05T01:51:12.449Z,21.26
2022-08-05T01:54:09.858Z,20.22
2022-08-05T01:58:09.881Z,19.27
2022-08-05T02:00:02.398Z,19.01
2022-08-05T02:02:59.284Z,19.93
2022-08-05T02:05:57.850Z,20.54
2022-08-05T02:08:57.800Z,20.74
2022-08-05T02:11:48.186Z,20.91
2022-08-05T02:14:54.744Z,21.08
2022-08-05T02:18:30.592Z,21.18
2022-08-05T02:21:15.324Z,21.28
2022-08-05T02:24:18.322Z,21.03
2022-08-05T02:27:14.142Z,19.93
2022-08-05T02:30:10.166Z,18.96
2022-08-05T02:32:59.181Z,18.61
2022-08-05T02:35:38.505Z,19.33
2022-08-05T02:38:38.796Z,20.06
2022-08-05T02:41:36.366Z,20.44
2022-08-05T02:44:49.829Z,20.73
2022-08-05T02:48:07.389Z,20.88
2022-08-05T02:51:03.750Z,20.97
2022-08-05T02:54:03.172Z,21.03
2022-08-05T02:56:58.665Z,21.08
2022-08-05T02:59:54.155Z,21.18
2022-08-05T03:02:50.426Z,21.08
2022-08-05T03:06:55.813Z,20.11
2022-08-05T03:08:59.727Z,19.09
2022-08-05T03:11:57.301Z,18.80
2022-08-05T03:14:50.872Z,19.66
2022-08-05T03:17:44.869Z,20.21
2022-08-05T03:20:38.006Z,20.41
2022-08-05T03:23:39.606Z,20.41
2022-08-05T03:26:32.895Z,20.41
2022-08-05T03:29:45.500Z,20.58
2022-08-05T03:32:37.981Z,20.79
2022-08-05T03:35:33.779Z,20.95
2022-08-05T03:38:37.488Z,21.00
2022-08-05T03:41:33.336Z,21.04
2022-08-05T03:44:31.022Z,21.11
2022-08-05T03:47:26.062Z,21.24
2022-08-05T03:50:30.415Z,21.14
2022-08-05T03:55:07.137Z,20.24
2022-08-05T03:56:44.280Z,19.32
2022-08-05T03:59:46.549Z,19.16
2022-08-05T04:02:52.277Z,20.20
2022-08-05T04:05:51.971Z,20.98
2022-08-05T04:08:45.073Z,21.34
2022-08-05T04:11:47.419Z,21.51
2022-08-05T04:14:44.317Z,21.57
2022-08-05T04:17:56.182Z,21.49
2022-08-05T04:20:56.207Z,21.52
2022-08-05T04:24:05.129Z,21.61
2022-08-05T04:27:00.959Z,21.89
2022-08-05T04:29:53.869Z,22.20
2022-08-05T04:32:36.529Z,22.51
2022-08-05T04:36:16.781Z,22.44
2022-08-05T04:38:43.338Z,21.43
2022-08-05T04:41:44.597Z,20.83
2022-08-05T04:44:38.189Z,21.15
2022-08-05T04:47:38.580Z,22.62
2022-08-05T04:50:37.123Z,23.75
2022-08-05T04:53:39.524Z,24.49
2022-08-05T04:56:34.748Z,24.71
2022-08-05T04:59:38.432Z,25.47
2022-08-05T05:02:41.510Z,26.54
2022-08-05T05:06:39.034Z,27.36
2022-08-05T05:08:50.140Z,27.96
2022-08-05T05:11:53.878Z,28.45
2022-08-05T05:14:51.321Z,28.44
2022-08-05T05:17:56.532Z,27.43
2022-08-05T05:20:50.532Z,26.25
2022-08-05T05:24:02.900Z,25.33
2022-08-05T05:26:55.199Z,24.52
2022-08-05T05:30:05.046Z,23.90
2022-08-05T05:33:03.584Z,23.38
2022-08-05T05:36:09.501Z,22.91
2022-08-05T05:39:03.822Z,22.57
2022-08-05T05:41:56.730Z,22.33
2022-08-05T05:44:48.971Z,22.16
2022-08-05T05:48:05.529Z,22.46
2022-08-05T05:50:44.352Z,23.95
2022-08-05T05:53:54.081Z,24.95
2022-08-05T05:56:49.229Z,25.28
2022-08-05T05:59:42.306Z,24.70
2022-08-05T06:02:37.740Z,24.21
2022-08-05T06:05:31.947Z,23.93
2022-08-05T06:08:32.264Z,23.80
2022-08-05T06:11:25.033Z,23.69
2022-08-05T06:14:11.121Z,23.68
2022-08-05T06:17:22.237Z,23.68
2022-08-05T06:20:18.740Z,23.71
2022-08-05T06:23:12.827Z,23.81
2022-08-05T06:26:21.272Z,23.93
2022-08-05T06:29:25.306Z,24.08
2022-08-05T06:32:28.674Z,24.20
2022-08-05T06:36:04.150Z,24.35
2022-08-05T06:38:36.159Z,24.50
2022-08-05T06:41:29.262Z,24.61
2022-08-05T06:44:27.029Z,24.62
2022-08-05T06:48:12.008Z,24.70
2022-08-05T06:50:31.573Z,24.86
2022-08-05T06:53:28.217Z,24.97
2022-08-05T06:56:26.449Z,25.08
2022-08-05T06:59:19.137Z,25.25
2022-08-05T07:02:11.272Z,25.36
2022-08-05T07:04:57.206Z,25.49
2022-08-05T07:07:50.319Z,25.64
2022-08-05T07:10:52.507Z,25.82
2022-08-05T07:14:04.268Z,25.96
2022-08-05T07:17:58.470Z,26.02
2022-08-05T07:23:26.141Z,26.29
2022-08-05T07:26:22.680Z,26.36
2022-08-05T07:29:17.490Z,26.52
2022-08-05T07:32:17.701Z,26.71
2022-08-05T07:36:03.318Z,26.85
2022-08-05T07:38:32.234Z,26.95
2022-08-05T07:42:08.289Z,27.09
2022-08-05T07:44:40.861Z,27.22
2022-08-05T07:47:42.336Z,27.33
2022-08-05T07:50:35.123Z,27.49
2022-08-05T07:53:37.017Z,27.65
2022-08-05T07:57:01.932Z,27.80
2022-08-05T07:59:53.582Z,27.95
2022-08-05T08:03:13.291Z,28.06
2022-08-05T08:05:47.263Z,28.15
2022-08-05T08:08:42.026Z,28.25
2022-08-05T08:11:17.152Z,28.35
2022-08-05T08:14:19.958Z,28.50
2022-08-05T08:17:16.108Z,28.63
2022-08-05T08:20:42.614Z,28.69
2022-08-05T08:24:01.191Z,28.73
2022-08-05T08:26:34.884Z,28.81
2022-08-05T08:30:06.485Z,28.96
2022-08-05T08:32:41.726Z,29.15
2022-08-05T08:35:35.226Z,29.33
2022-08-05T08:38:35.108Z,29.48
2022-08-05T08:41:52.009Z,29.65
2022-08-05T08:45:22.578Z,29.78
2022-08-05T08:48:12.774Z,29.89
2022-08-05T08:52:02.411Z,30.06
2022-08-05T08:54:27.169Z,30.22
2022-08-05T08:57:20.217Z,30.36
2022-08-05T09:00:16.715Z,30.45
2022-08-05T09:03:12.569Z,30.52
2022-08-05T09:06:11.078Z,30.61
2022-08-05T09:09:05.330Z,30.64
2022-08-05T09:12:05.966Z,30.66
2022-08-05T09:15:09.749Z,30.73
2022-08-05T09:18:01.906Z,30.78
2022-08-05T09:20:49.229Z,30.80
2022-08-05T09:23:45.765Z,30.92
2022-08-05T09:26:39.980Z,31.06
2022-08-05T09:29:48.020Z,31.12
2022-08-05T09:32:46.855Z,31.21
2022-08-05T09:35:41.132Z,31.35
2022-08-05T09:38:34.191Z,31.44
2022-08-05T09:41:26.780Z,31.51
2022-08-05T09:44:38.568Z,31.57
2022-08-05T09:47:48.370Z,31.55
2022-08-05T09:50:44.503Z,31.52
2022-08-05T09:53:54.531Z,31.53
2022-08-05T09:56:51.790Z,31.63
2022-08-05T09:59:48.701Z,31.71
2022-08-05T10:02:40.890Z,31.78
2022-08-05T10:05:32.727Z,31.84
2022-08-05T10:08:37.304Z,31.87
2022-08-05T10:11:35.385Z,31.95
2022-08-05T10:14:30.186Z,32.03
2022-08-05T10:17:37.583Z,32.07
2022-08-05T10:20:33.310Z,32.16
2022-08-05T10:23:34.562Z,32.19
2022-08-05T10:26:32.766Z,32.18
2022-08-05T10:30:06.771Z,32.18
2022-08-05T10:32:52.513Z,32.25
2022-08-05T10:35:59.231Z,32.28
2022-08-05T10:38:59.383Z,32.26
2022-08-05T10:42:01.263Z,32.20
2022-08-05T10:44:55.926Z,32.22
2022-08-05T10:48:29.242Z,32.28
2022-08-05T10:51:04.947Z,32.34
2022-08-05T10:54:28.444Z,32.42
2022-08-05T10:57:32.085Z,32.49
2022-08-05T11:00:32.158Z,32.51
2022-08-05T11:03:27.047Z,32.54
2022-08-05T11:06:17.867Z,32.55
2022-08-05T11:09:24.464Z,32.51
2022-08-05T11:12:54.405Z,32.46
2022-08-05T11:16:00.552Z,32.43
2022-08-05T11:18:47.107Z,32.47
2022-08-05T11:21:40.992Z,32.49
2022-08-05T11:24:50.633Z,32.45
2022-08-05T11:28:00.899Z,32.44
2022-08-05T11:31:53.990Z,32.41
2022-08-05T11:34:50.985Z,32.40
2022-08-05T11:38:26.423Z,32.40
2022-08-05T11:41:54.625Z,32.40
2022-08-05T11:44:54.133Z,32.45
2022-08-05T11:47:48.467Z,32.57
2022-08-05T11:50:42.857Z,32.69
2022-08-05T11:53:41.014Z,32.80
2022-08-05T11:56:50.465Z,32.92
2022-08-05T11:59:49.907Z,32.96
2022-08-05T12:02:36.173Z,32.98
2022-08-05T12:05:32.309Z,32.99
2022-08-05T12:08:32.978Z,32.96
2022-08-05T12:11:28.101Z,32.88
2022-08-05T12:14:40.809Z,32.81
2022-08-05T12:18:04.025Z,32.86
2022-08-05T12:20:50.801Z,32.97
2022-08-05T12:23:52.591Z,33.01
2022-08-05T12:26:47.849Z,33.01
2022-08-05T12:29:40.085Z,33.05
2022-08-05T12:32:35.409Z,33.12
2022-08-05T12:35:39.545Z,33.17
2022-08-05T12:38:32.478Z,33.21
2022-08-05T12:41:34.394Z,33.29
2022-08-05T12:44:33.201Z,33.42
2022-08-05T12:47:06.340Z,33.54
2022-08-05T12:50:16.332Z,33.67
2022-08-05T12:53:09.238Z,33.72
2022-08-05T12:56:34.460Z,33.66
2022-08-05T13:00:08.715Z,33.57
2022-08-05T13:02:40.125Z,33.51
2022-08-05T13:05:37.877Z,33.57
2022-08-05T13:08:32.811Z,33.58
2022-08-05T13:12:02.539Z,33.60
2022-08-05T13:14:46.365Z,33.60
2022-08-05T13:17:59.283Z,33.65
2022-08-05T13:20:51.901Z,33.72
2022-08-05T13:23:50.822Z,33.80
2022-08-05T13:26:50.704Z,33.92
2022-08-05T13:29:59.636Z,33.98
2022-08-05T13:32:56.523Z,34.00
2022-08-05T13:35:51.776Z,34.01
2022-08-05T13:38:44.232Z,34.03
2022-08-05T13:41:42.788Z,34.00
2022-08-05T13:44:14.904Z,34.01
2022-08-05T13:47:10.702Z,34.01
2022-08-05T13:50:23.125Z,33.98
2022-08-05T13:53:16.733Z,34.01
2022-08-05T13:56:18.330Z,34.07
2022-08-05T13:59:20.254Z,34.14
2022-08-05T14:02:19.977Z,34.16
2022-08-05T14:05:15.451Z,34.21
2022-08-05T14:08:21.307Z,34.24
2022-08-05T14:11:22.058Z,34.22
2022-08-05T14:14:14.460Z,34.17
2022-08-05T14:17:17.031Z,34.18
2022-08-05T14:20:12.221Z,34.22
2022-08-05T14:23:10.629Z,34.26
2022-08-05T14:26:07.267Z,34.30
2022-08-05T14:29:15.963Z,34.32
2022-08-05T14:32:16.024Z,34.30
2022-08-05T14:35:20.527Z,34.35
2022-08-05T14:38:31.788Z,34.39
2022-08-05T14:41:25.592Z,34.44
2022-08-05T14:44:20.283Z,34.50
2022-08-05T14:47:14.192Z,34.57
2022-08-05T14:50:14.181Z,34.58
2022-08-05T14:53:10.866Z,34.61
2022-08-05T14:56:03.262Z,34.67
2022-08-05T14:58:56.961Z,34.70
2022-08-05T15:01:49.231Z,34.72
2022-08-05T15:04:34.750Z,34.76
2022-08-05T15:08:06.347Z,34.77
2022-08-05T15:10:39.405Z,34.75
2022-08-05T15:13:28.602Z,34.75
2022-08-05T15:16:37.533Z,34.70
2022-08-05T15:19:32.595Z,34.65
2022-08-05T15:22:26.636Z,34.64
2022-08-05T15:25:23.501Z,34.62
2022-08-05T15:28:32.523Z,34.66
2022-08-05T15:31:23.628Z,34.60
2022-08-05T15:34:32.234Z,34.51
2022-08-05T15:38:08.419Z,34.45
2022-08-05T15:41:01.274Z,34.40
2022-08-05T15:43:52.194Z,34.40
2022-08-05T15:46:47.104Z,34.37
2022-08-05T15:49:56.720Z,34.33
2022-08-05T15:52:52.832Z,34.25
2022-08-05T15:56:02.908Z,34.20
2022-08-05T15:58:56.704Z,34.18
2022-08-05T16:01:52.427Z,34.15
2022-08-05T16:04:45.716Z,34.08
2022-08-05T16:07:37.383Z,34.05
2022-08-05T16:10:12.947Z,34.07
2022-08-05T16:13:05.545Z,34.07
2022-08-05T16:15:47.698Z,34.05
2022-08-05T16:18:51.882Z,33.98
2022-08-05T16:22:00.298Z,33.91
2022-08-05T16:24:55.158Z,33.92
2022-08-05T16:28:04.943Z,34.16
2022-08-05T16:31:10.692Z,34.58
2022-08-05T16:34:02.969Z,35.04
2022-08-05T16:36:50.907Z,35.45
2022-08-05T16:40:05.867Z,35.72
2022-08-05T16:42:47.804Z,35.91
2022-08-05T16:46:05.136Z,36.06
2022-08-05T16:48:55.609Z,36.27
2022-08-05T16:51:51.344Z,36.46
2022-08-05T16:54:48.997Z,36.66
2022-08-05T16:57:53.756Z,36.77
2022-08-05T17:00:53.857Z,36.80
2022-08-05T17:03:47.333Z,36.75
2022-08-05T17:06:41.840Z,36.70
2022-08-05T17:09:57.200Z,36.45
2022-08-05T17:12:51.822Z,36.04
2022-08-05T17:15:49.669Z,35.45
2022-08-05T17:18:37.398Z,34.67
2022-08-05T17:21:36.306Z,33.90
2022-08-05T17:24:38.724Z,33.19
2022-08-05T17:27:34.006Z,32.55
2022-08-05T17:30:28.327Z,31.99
2022-08-05T17:33:22.143Z,31.50
2022-08-05T17:36:33.898Z,31.07
2022-08-05T17:39:33.504Z,30.63
2022-08-05T17:42:32.040Z,30.24
2022-08-05T17:45:29.616Z,29.87
2022-08-05T17:48:30.621Z,29.53
2022-08-05T17:51:23.295Z,29.24
2022-08-05T17:54:15.771Z,28.97
2022-08-05T17:57:15.821Z,28.72
2022-08-05T18:00:14.260Z,28.47
2022-08-05T18:03:06.520Z,28.20
2022-08-05T18:06:04.064Z,27.95
2022-08-05T18:08:56.515Z,27.71
2022-08-05T18:11:52.380Z,27.47
2022-08-05T18:14:44.711Z,27.22
2022-08-05T18:17:59.099Z,27.00
2022-08-05T18:20:34.884Z,26.76
2022-08-05T18:23:30.282Z,26.53
2022-08-05T18:26:33.107Z,26.29
2022-08-05T18:29:39.952Z,26.07
2022-08-05T18:32:33.644Z,25.84
2022-08-05T18:35:49.499Z,25.66
2022-08-05T18:38:38.991Z,25.47
2022-08-05T18:41:58.004Z,25.31
2022-08-05T18:44:33.166Z,25.12
2022-08-05T18:47:27.709Z,24.94
2022-08-05T18:50:42.127Z,24.79
2022-08-05T18:53:42.979Z,24.61
2022-08-05T18:56:38.517Z,24.45
2022-08-05T18:59:42.907Z,24.30
2022-08-05T19:02:27.812Z,24.16
2022-08-05T19:06:11.483Z,24.03
2022-08-05T19:08:35.871Z,23.90
2022-08-05T19:11:59.146Z,23.78
2022-08-05T19:15:00.468Z,23.94
2022-08-05T19:18:08.689Z,25.11
2022-08-05T19:20:52.792Z,26.03
2022-08-05T19:24:07.890Z,26.28
2022-08-05T19:26:58.348Z,25.61
2022-08-05T19:29:50.522Z,25.03
2022-08-05T19:32:45.376Z,24.62
2022-08-05T19:35:56.335Z,24.30
2022-08-05T19:38:53.000Z,23.99
2022-08-05T19:42:06.515Z,24.13
2022-08-05T19:44:58.366Z,25.24
2022-08-05T19:47:55.826Z,25.96
2022-08-05T19:50:47.921Z,26.04
2022-08-05T19:54:03.389Z,25.18
2022-08-05T19:56:55.366Z,24.37
2022-08-05T19:59:55.577Z,23.89
2022-08-05T20:03:00.289Z,23.48
2022-08-05T20:05:57.970Z,23.56
2022-08-05T20:08:51.698Z,24.57
2022-08-05T20:11:48.198Z,25.42
2022-08-05T20:14:40.522Z,25.96
2022-08-05T20:17:35.021Z,26.03
2022-08-05T20:20:31.037Z,25.24
2022-08-05T20:23:40.362Z,24.50
2022-08-05T20:26:38.253Z,23.92
2022-08-05T20:29:31.091Z,23.49
2022-08-05T20:32:23.633Z,23.53
2022-08-05T20:35:16.091Z,24.63
2022-08-05T20:38:08.608Z,25.38
2022-08-05T20:41:04.642Z,25.82
2022-08-05T20:44:17.752Z,25.77
2022-08-05T20:47:13.756Z,24.87
2022-08-05T20:50:11.528Z,24.19
2022-08-05T20:53:03.921Z,23.67
2022-08-05T20:56:09.821Z,23.71
2022-08-05T20:59:14.136Z,24.58
2022-08-05T21:02:12.945Z,25.10
2022-08-05T21:05:12.968Z,25.39
2022-08-05T21:08:06.688Z,25.59
2022-08-05T21:10:58.879Z,25.51
2022-08-05T21:13:56.625Z,24.65
2022-08-05T21:16:49.126Z,23.90
2022-08-05T21:19:47.629Z,23.58
2022-08-05T21:22:43.228Z,24.18
2022-08-05T21:25:35.503Z,24.68
2022-08-05T21:28:30.829Z,24.93
2022-08-05T21:31:23.314Z,25.15
2022-08-05T21:34:18.006Z,25.37
2022-08-05T21:37:10.549Z,25.26
2022-08-05T21:40:05.738Z,24.45
2022-08-05T21:42:59.013Z,23.70
2022-08-05T21:45:57.745Z,23.46
2022-08-05T21:48:56.641Z,24.27
2022-08-05T21:52:22.676Z,24.80
2022-08-05T21:54:41.468Z,25.14
2022-08-05T21:57:34.728Z,25.33
2022-08-05T22:00:21.404Z,25.26
2022-08-05T22:02:53.682Z,24.52
2022-08-05T22:05:48.771Z,23.70
2022-08-05T22:08:42.453Z,23.03
2022-08-05T22:11:35.780Z,22.88
2022-08-05T22:14:35.236Z,23.73
2022-08-05T22:17:30.676Z,24.32
2022-08-05T22:20:25.719Z,24.63
2022-08-05T22:24:02.842Z,24.76
2022-08-05T22:27:06.705Z,24.84
2022-08-05T22:29:59.270Z,24.93
2022-08-05T22:32:51.353Z,24.79
2022-08-05T22:35:48.659Z,23.93
2022-08-05T22:38:41.563Z,23.15
2022-08-05T22:42:10.739Z,22.84
2022-08-05T22:44:56.331Z,23.68
2022-08-05T22:47:49.885Z,24.30
2022-08-05T22:50:56.019Z,24.64
2022-08-05T22:53:50.049Z,24.88
2022-08-05T22:56:42.597Z,25.02
2022-08-05T22:59:45.914Z,25.14
2022-08-05T23:02:46.865Z,24.96
2022-08-05T23:05:39.610Z,24.02
2022-08-05T23:08:32.447Z,23.20
2022-08-05T23:11:26.529Z,22.82
2022-08-05T23:14:22.381Z,23.46
2022-08-05T23:17:34.267Z,23.92
2022-08-05T23:20:29.105Z,24.18
2022-08-05T23:23:22.393Z,24.38
2022-08-05T23:26:14.917Z,24.56
2022-08-05T23:29:08.301Z,24.70
2022-08-05T23:32:03.499Z,24.59
2022-08-05T23:34:56.877Z,23.71
2022-08-05T23:37:49.160Z,22.87
2022-08-05T23:40:34.616Z,22.53
2022-08-05T23:44:03.705Z,23.19
2022-08-05T23:46:39.263Z,23.85
2022-08-05T23:49:33.915Z,24.19
2022-08-05T23:52:30.797Z,24.42
2022-08-05T23:55:24.693Z,24.54
2022-08-05T23:58:31.807Z,24.33
